Terminal Aerodrome Forecast
Issued by NWS

Home | Current Version | Previous Version | Graphics & Text | Print | Product List | Glossary On
Versions: 1 2 3 4 5 6 7 8 9 10 11 12 13 14 15 16 17 18 19 20 21 22 23
127
FTUS45 KGGW 221720
TAFOLF
TAF
KOLF 221720Z 2218/2318 28012KT P6SM SCT150
     FM230500 VRB03KT P6SM FEW060
     FM230800 24004KT 3SM BR SCT018 WS020/28035KT=

USA.gov is the U.S. government's official web portal to all federal, state and local government web resources and services.